sensor_id;sensor_type;location;lat;lon;timestamp;temperature;humidity
49385;DHT22;36795;45.028;38.968;2023-04-28T00:00:54;19.20;64.50
49385;DHT22;36795;45.028;38.968;2023-04-28T00:03:40;19.20;64.40
49385;DHT22;36795;45.028;38.968;2023-04-28T00:06:26;19.20;64.50
49385;DHT22;36795;45.028;38.968;2023-04-28T00:09:12;19.10;64.60
49385;DHT22;36795;45.028;38.968;2023-04-28T00:11:58;19.10;64.70
49385;DHT22;36795;45.028;38.968;2023-04-28T00:14:44;19.10;64.70
49385;DHT22;36795;45.028;38.968;2023-04-28T00:17:30;19.10;64.60
49385;DHT22;36795;45.028;38.968;2023-04-28T00:20:16;19.10;64.30
49385;DHT22;36795;45.028;38.968;2023-04-28T00:23:02;19.10;64.00
49385;DHT22;36795;45.028;38.968;2023-04-28T00:25:53;19.10;63.70
49385;DHT22;36795;45.028;38.968;2023-04-28T00:28:39;19.20;63.20
49385;DHT22;36795;45.028;38.968;2023-04-28T00:31:25;19.20;62.70
49385;DHT22;36795;45.028;38.968;2023-04-28T00:34:11;19.30;62.50
49385;DHT22;36795;45.028;38.968;2023-04-28T00:37:00;19.30;62.80
49385;DHT22;36795;45.028;38.968;2023-04-28T00:39:45;19.20;63.40
49385;DHT22;36795;45.028;38.968;2023-04-28T00:42:31;19.10;64.10
49385;DHT22;36795;45.028;38.968;2023-04-28T00:45:18;19.10;64.90
49385;DHT22;36795;45.028;38.968;2023-04-28T00:48:04;19.00;65.40
49385;DHT22;36795;45.028;38.968;2023-04-28T00:50:50;18.90;65.90
49385;DHT22;36795;45.028;38.968;2023-04-28T00:53:37;18.90;66.40
49385;DHT22;36795;45.028;38.968;2023-04-28T00:56:22;18.90;66.70
49385;DHT22;36795;45.028;38.968;2023-04-28T00:59:09;18.80;66.60
49385;DHT22;36795;45.028;38.968;2023-04-28T01:01:55;18.90;66.70
49385;DHT22;36795;45.028;38.968;2023-04-28T01:04:41;18.80;66.60
49385;DHT22;36795;45.028;38.968;2023-04-28T01:07:28;18.90;66.60
49385;DHT22;36795;45.028;38.968;2023-04-28T01:10:14;18.80;66.50
49385;DHT22;36795;45.028;38.968;2023-04-28T01:13:00;18.90;66.40
49385;DHT22;36795;45.028;38.968;2023-04-28T01:15:47;18.90;66.10
49385;DHT22;36795;45.028;38.968;2023-04-28T01:18:33;18.90;65.70
49385;DHT22;36795;45.028;38.968;2023-04-28T01:21:27;18.90;65.60
49385;DHT22;36795;45.028;38.968;2023-04-28T01:24:14;18.90;65.30
49385;DHT22;36795;45.028;38.968;2023-04-28T01:27:02;18.80;65.50
49385;DHT22;36795;45.028;38.968;2023-04-28T01:29:47;18.70;65.70
49385;DHT22;36795;45.028;38.968;2023-04-28T01:32:34;18.60;65.80
49385;DHT22;36795;45.028;38.968;2023-04-28T01:35:20;18.60;66.00
49385;DHT22;36795;45.028;38.968;2023-04-28T01:38:07;18.50;65.90
49385;DHT22;36795;45.028;38.968;2023-04-28T01:40:54;18.60;66.00
49385;DHT22;36795;45.028;38.968;2023-04-28T01:43:40;18.50;66.10
49385;DHT22;36795;45.028;38.968;2023-04-28T01:46:28;18.60;66.20
49385;DHT22;36795;45.028;38.968;2023-04-28T01:49:16;18.50;66.30
49385;DHT22;36795;45.028;38.968;2023-04-28T01:52:02;18.50;66.50
49385;DHT22;36795;45.028;38.968;2023-04-28T01:54:49;18.40;66.60
49385;DHT22;36795;45.028;38.968;2023-04-28T01:57:35;18.40;66.70
49385;DHT22;36795;45.028;38.968;2023-04-28T02:00:22;18.40;66.80
49385;DHT22;36795;45.028;38.968;2023-04-28T02:03:09;18.40;66.70
49385;DHT22;36795;45.028;38.968;2023-04-28T02:05:55;18.40;66.90
49385;DHT22;36795;45.028;38.968;2023-04-28T02:08:41;18.40;66.90
49385;DHT22;36795;45.028;38.968;2023-04-28T02:11:31;18.40;66.80
49385;DHT22;36795;45.028;38.968;2023-04-28T02:14:17;18.40;67.10
49385;DHT22;36795;45.028;38.968;2023-04-28T02:17:03;18.40;67.30
49385;DHT22;36795;45.028;38.968;2023-04-28T02:19:55;18.40;67.40
49385;DHT22;36795;45.028;38.968;2023-04-28T02:22:41;18.50;67.70
49385;DHT22;36795;45.028;38.968;2023-04-28T02:25:27;18.50;67.60
49385;DHT22;36795;45.028;38.968;2023-04-28T02:28:13;18.50;68.00
49385;DHT22;36795;45.028;38.968;2023-04-28T02:33:51;18.60;68.30
49385;DHT22;36795;45.028;38.968;2023-04-28T02:36:38;18.50;68.50
49385;DHT22;36795;45.028;38.968;2023-04-28T02:39:25;18.50;68.80
49385;DHT22;36795;45.028;38.968;2023-04-28T02:42:14;18.50;69.00
49385;DHT22;36795;45.028;38.968;2023-04-28T02:45:01;18.50;69.40
49385;DHT22;36795;45.028;38.968;2023-04-28T02:47:47;18.50;69.60
49385;DHT22;36795;45.028;38.968;2023-04-28T02:50:35;18.40;70.10
49385;DHT22;36795;45.028;38.968;2023-04-28T02:53:21;18.50;70.50
49385;DHT22;36795;45.028;38.968;2023-04-28T02:56:08;18.40;70.80
49385;DHT22;36795;45.028;38.968;2023-04-28T02:58:54;18.40;70.90
49385;DHT22;36795;45.028;38.968;2023-04-28T03:01:41;18.40;71.10
49385;DHT22;36795;45.028;38.968;2023-04-28T03:04:27;18.40;71.30
49385;DHT22;36795;45.028;38.968;2023-04-28T03:07:14;18.30;71.40
49385;DHT22;36795;45.028;38.968;2023-04-28T03:10:01;18.30;71.70
49385;DHT22;36795;45.028;38.968;2023-04-28T03:12:47;18.30;71.80
49385;DHT22;36795;45.028;38.968;2023-04-28T03:15:33;18.30;71.60
49385;DHT22;36795;45.028;38.968;2023-04-28T03:18:19;18.30;71.70
49385;DHT22;36795;45.028;38.968;2023-04-28T03:21:06;18.40;71.70
49385;DHT22;36795;45.028;38.968;2023-04-28T03:23:53;18.40;71.80
49385;DHT22;36795;45.028;38.968;2023-04-28T03:26:40;18.50;72.10
49385;DHT22;36795;45.028;38.968;2023-04-28T03:29:27;18.60;72.10
49385;DHT22;36795;45.028;38.968;2023-04-28T03:32:13;18.60;72.00
49385;DHT22;36795;45.028;38.968;2023-04-28T03:34:59;18.70;72.10
49385;DHT22;36795;45.028;38.968;2023-04-28T03:37:44;18.70;72.30
49385;DHT22;36795;45.028;38.968;2023-04-28T03:40:31;18.70;72.40
49385;DHT22;36795;45.028;38.968;2023-04-28T03:43:19;18.70;72.40
49385;DHT22;36795;45.028;38.968;2023-04-28T03:46:05;18.70;72.50
49385;DHT22;36795;45.028;38.968;2023-04-28T03:48:51;18.70;72.40
49385;DHT22;36795;45.028;38.968;2023-04-28T03:51:38;18.70;72.10
49385;DHT22;36795;45.028;38.968;2023-04-28T03:54:23;18.80;72.00
49385;DHT22;36795;45.028;38.968;2023-04-28T03:57:10;18.80;71.60
49385;DHT22;36795;45.028;38.968;2023-04-28T03:59:56;18.70;71.50
49385;DHT22;36795;45.028;38.968;2023-04-28T04:02:43;18.60;71.30
49385;DHT22;36795;45.028;38.968;2023-04-28T04:05:29;18.60;71.40
49385;DHT22;36795;45.028;38.968;2023-04-28T04:08:15;18.50;71.20
49385;DHT22;36795;45.028;38.968;2023-04-28T04:11:02;18.50;71.10
49385;DHT22;36795;45.028;38.968;2023-04-28T04:13:48;18.40;71.10
49385;DHT22;36795;45.028;38.968;2023-04-28T04:16:35;18.40;71.00
49385;DHT22;36795;45.028;38.968;2023-04-28T04:19:22;18.40;70.90
49385;DHT22;36795;45.028;38.968;2023-04-28T04:22:12;18.40;70.80
49385;DHT22;36795;45.028;38.968;2023-04-28T04:24:57;18.40;70.80
49385;DHT22;36795;45.028;38.968;2023-04-28T04:27:44;18.40;70.90
49385;DHT22;36795;45.028;38.968;2023-04-28T04:30:30;18.40;70.90
49385;DHT22;36795;45.028;38.968;2023-04-28T04:33:16;18.40;71.00
49385;DHT22;36795;45.028;38.968;2023-04-28T04:36:04;18.50;71.20
49385;DHT22;36795;45.028;38.968;2023-04-28T04:38:51;18.60;71.10
49385;DHT22;36795;45.028;38.968;2023-04-28T04:41:39;18.70;70.80
49385;DHT22;36795;45.028;38.968;2023-04-28T04:44:29;18.90;70.60
49385;DHT22;36795;45.028;38.968;2023-04-28T04:47:15;19.10;69.70
49385;DHT22;36795;45.028;38.968;2023-04-28T04:50:02;19.10;69.20
49385;DHT22;36795;45.028;38.968;2023-04-28T04:52:48;19.20;68.70
49385;DHT22;36795;45.028;38.968;2023-04-28T04:55:34;19.20;68.40
49385;DHT22;36795;45.028;38.968;2023-04-28T04:58:22;19.20;68.30
49385;DHT22;36795;45.028;38.968;2023-04-28T05:01:11;19.10;68.20
49385;DHT22;36795;45.028;38.968;2023-04-28T05:03:56;19.00;68.50
49385;DHT22;36795;45.028;38.968;2023-04-28T05:06:43;18.90;68.70
49385;DHT22;36795;45.028;38.968;2023-04-28T05:09:29;18.90;69.00
49385;DHT22;36795;45.028;38.968;2023-04-28T05:12:17;19.00;69.20
49385;DHT22;36795;45.028;38.968;2023-04-28T05:15:07;19.00;69.40
49385;DHT22;36795;45.028;38.968;2023-04-28T05:17:54;19.10;69.70
49385;DHT22;36795;45.028;38.968;2023-04-28T05:20:40;19.10;70.10
49385;DHT22;36795;45.028;38.968;2023-04-28T05:23:36;19.10;70.50
49385;DHT22;36795;45.028;38.968;2023-04-28T05:26:22;19.10;70.70
49385;DHT22;36795;45.028;38.968;2023-04-28T05:29:11;19.00;71.10
49385;DHT22;36795;45.028;38.968;2023-04-28T05:31:57;18.90;71.80
49385;DHT22;36795;45.028;38.968;2023-04-28T05:34:43;18.70;72.20
49385;DHT22;36795;45.028;38.968;2023-04-28T05:37:30;18.60;72.90
49385;DHT22;36795;45.028;38.968;2023-04-28T05:40:16;18.50;73.70
49385;DHT22;36795;45.028;38.968;2023-04-28T05:43:03;18.50;74.30
49385;DHT22;36795;45.028;38.968;2023-04-28T05:45:50;18.50;75.00
49385;DHT22;36795;45.028;38.968;2023-04-28T05:48:36;18.50;75.50
49385;DHT22;36795;45.028;38.968;2023-04-28T05:51:22;18.40;76.60
49385;DHT22;36795;45.028;38.968;2023-04-28T05:54:09;18.30;76.40
49385;DHT22;36795;45.028;38.968;2023-04-28T05:56:56;18.40;77.00
49385;DHT22;36795;45.028;38.968;2023-04-28T05:59:42;18.40;76.50
49385;DHT22;36795;45.028;38.968;2023-04-28T06:02:28;18.40;76.40
49385;DHT22;36795;45.028;38.968;2023-04-28T06:05:15;18.40;76.10
49385;DHT22;36795;45.028;38.968;2023-04-28T06:08:01;18.40;76.10
49385;DHT22;36795;45.028;38.968;2023-04-28T06:10:49;18.40;75.90
49385;DHT22;36795;45.028;38.968;2023-04-28T06:13:37;18.40;76.30
49385;DHT22;36795;45.028;38.968;2023-04-28T06:16:23;18.50;76.10
49385;DHT22;36795;45.028;38.968;2023-04-28T06:19:10;18.50;76.00
49385;DHT22;36795;45.028;38.968;2023-04-28T06:22:01;18.50;75.80
49385;DHT22;36795;45.028;38.968;2023-04-28T06:24:49;18.50;75.80
49385;DHT22;36795;45.028;38.968;2023-04-28T06:27:37;18.60;75.90
49385;DHT22;36795;45.028;38.968;2023-04-28T06:30:23;18.60;75.90
49385;DHT22;36795;45.028;38.968;2023-04-28T06:33:09;18.60;76.00
49385;DHT22;36795;45.028;38.968;2023-04-28T06:35:58;18.60;76.50
49385;DHT22;36795;45.028;38.968;2023-04-28T06:38:46;18.60;76.40
49385;DHT22;36795;45.028;38.968;2023-04-28T06:41:32;18.80;76.30
49385;DHT22;36795;45.028;38.968;2023-04-28T06:44:18;18.90;76.90
49385;DHT22;36795;45.028;38.968;2023-04-28T06:47:04;19.00;76.00
49385;DHT22;36795;45.028;38.968;2023-04-28T06:49:51;19.10;75.70
49385;DHT22;36795;45.028;38.968;2023-04-28T06:52:36;19.10;75.20
49385;DHT22;36795;45.028;38.968;2023-04-28T06:55:25;19.20;74.80
49385;DHT22;36795;45.028;38.968;2023-04-28T06:58:12;19.20;73.00
49385;DHT22;36795;45.028;38.968;2023-04-28T07:00:58;19.20;72.80
49385;DHT22;36795;45.028;38.968;2023-04-28T07:03:44;19.10;73.10
49385;DHT22;36795;45.028;38.968;2023-04-28T07:06:30;19.20;73.30
49385;DHT22;36795;45.028;38.968;2023-04-28T07:09:16;19.20;73.40
49385;DHT22;36795;45.028;38.968;2023-04-28T07:12:03;19.10;73.20
49385;DHT22;36795;45.028;38.968;2023-04-28T07:14:49;19.00;73.40
49385;DHT22;36795;45.028;38.968;2023-04-28T07:17:37;19.00;74.00
49385;DHT22;36795;45.028;38.968;2023-04-28T07:20:23;18.90;74.90
49385;DHT22;36795;45.028;38.968;2023-04-28T07:23:09;18.90;75.30
49385;DHT22;36795;45.028;38.968;2023-04-28T07:25:56;18.90;75.50
49385;DHT22;36795;45.028;38.968;2023-04-28T07:28:43;19.00;75.90
49385;DHT22;36795;45.028;38.968;2023-04-28T07:31:29;19.10;76.00
49385;DHT22;36795;45.028;38.968;2023-04-28T07:34:16;19.20;76.00
49385;DHT22;36795;45.028;38.968;2023-04-28T07:37:02;19.50;75.70
49385;DHT22;36795;45.028;38.968;2023-04-28T07:39:49;19.90;74.80
49385;DHT22;36795;45.028;38.968;2023-04-28T07:42:35;20.60;73.40
49385;DHT22;36795;45.028;38.968;2023-04-28T07:45:22;21.40;71.20
49385;DHT22;36795;45.028;38.968;2023-04-28T07:48:08;21.60;70.20
49385;DHT22;36795;45.028;38.968;2023-04-28T07:50:54;21.70;69.50
49385;DHT22;36795;45.028;38.968;2023-04-28T07:53:40;21.60;68.20
49385;DHT22;36795;45.028;38.968;2023-04-28T07:56:26;22.20;67.50
49385;DHT22;36795;45.028;38.968;2023-04-28T07:59:12;22.80;65.50
49385;DHT22;36795;45.028;38.968;2023-04-28T08:01:58;23.40;63.80
49385;DHT22;36795;45.028;38.968;2023-04-28T08:04:44;23.70;63.10
49385;DHT22;36795;45.028;38.968;2023-04-28T08:07:30;23.40;62.70
49385;DHT22;36795;45.028;38.968;2023-04-28T08:10:17;22.80;62.20
49385;DHT22;36795;45.028;38.968;2023-04-28T08:13:02;22.40;62.90
49385;DHT22;36795;45.028;38.968;2023-04-28T08:15:49;22.00;63.90
49385;DHT22;36795;45.028;38.968;2023-04-28T08:18:34;21.50;64.30
49385;DHT22;36795;45.028;38.968;2023-04-28T08:21:21;21.10;65.00
49385;DHT22;36795;45.028;38.968;2023-04-28T08:24:07;20.80;65.40
49385;DHT22;36795;45.028;38.968;2023-04-28T08:26:55;20.60;66.00
49385;DHT22;36795;45.028;38.968;2023-04-28T08:29:41;20.90;65.70
49385;DHT22;36795;45.028;38.968;2023-04-28T08:32:27;21.40;64.90
49385;DHT22;36795;45.028;38.968;2023-04-28T08:35:13;21.80;64.20
49385;DHT22;36795;45.028;38.968;2023-04-28T08:38:00;22.50;62.80
49385;DHT22;36795;45.028;38.968;2023-04-28T08:40:46;24.00;59.80
49385;DHT22;36795;45.028;38.968;2023-04-28T08:43:34;25.20;56.60
49385;DHT22;36795;45.028;38.968;2023-04-28T08:46:21;25.30;55.30
49385;DHT22;36795;45.028;38.968;2023-04-28T08:49:13;24.40;56.70
49385;DHT22;36795;45.028;38.968;2023-04-28T08:52:00;23.40;58.50
49385;DHT22;36795;45.028;38.968;2023-04-28T08:54:49;22.30;60.90
49385;DHT22;36795;45.028;38.968;2023-04-28T08:57:48;21.80;62.90
49385;DHT22;36795;45.028;38.968;2023-04-28T09:00:36;21.50;63.90
49385;DHT22;36795;45.028;38.968;2023-04-28T09:03:22;21.30;64.50
49385;DHT22;36795;45.028;38.968;2023-04-28T09:06:08;21.30;65.20
49385;DHT22;36795;45.028;38.968;2023-04-28T09:08:55;21.20;65.40
49385;DHT22;36795;45.028;38.968;2023-04-28T09:11:58;21.20;65.70
49385;DHT22;36795;45.028;38.968;2023-04-28T09:14:43;21.30;65.60
49385;DHT22;36795;45.028;38.968;2023-04-28T09:17:30;21.50;65.30
49385;DHT22;36795;45.028;38.968;2023-04-28T09:20:24;21.80;65.50
49385;DHT22;36795;45.028;38.968;2023-04-28T09:23:20;22.20;63.90
49385;DHT22;36795;45.028;38.968;2023-04-28T09:26:06;22.40;62.90
49385;DHT22;36795;45.028;38.968;2023-04-28T09:29:11;22.40;62.90
49385;DHT22;36795;45.028;38.968;2023-04-28T09:32:18;23.20;61.80
49385;DHT22;36795;45.028;38.968;2023-04-28T09:35:05;23.90;60.20
49385;DHT22;36795;45.028;38.968;2023-04-28T09:37:57;24.20;59.70
49385;DHT22;36795;45.028;38.968;2023-04-28T09:40:59;25.50;58.50
49385;DHT22;36795;45.028;38.968;2023-04-28T09:43:46;27.20;53.50
49385;DHT22;36795;45.028;38.968;2023-04-28T09:46:32;28.30;51.50
49385;DHT22;36795;45.028;38.968;2023-04-28T09:49:23;28.10;51.00
49385;DHT22;36795;45.028;38.968;2023-04-28T09:52:13;28.70;50.90
49385;DHT22;36795;45.028;38.968;2023-04-28T09:55:01;30.20;48.50
49385;DHT22;36795;45.028;38.968;2023-04-28T09:57:49;31.10;44.40
49385;DHT22;36795;45.028;38.968;2023-04-28T10:00:38;30.80;44.10
49385;DHT22;36795;45.028;38.968;2023-04-28T10:03:27;30.80;44.60
49385;DHT22;36795;45.028;38.968;2023-04-28T10:06:12;30.00;42.50
49385;DHT22;36795;45.028;38.968;2023-04-28T10:08:59;29.30;44.60
49385;DHT22;36795;45.028;38.968;2023-04-28T10:11:45;29.40;44.70
49385;DHT22;36795;45.028;38.968;2023-04-28T10:14:32;29.20;44.90
49385;DHT22;36795;45.028;38.968;2023-04-28T10:17:20;29.30;44.40
49385;DHT22;36795;45.028;38.968;2023-04-28T10:20:07;29.40;44.20
49385;DHT22;36795;45.028;38.968;2023-04-28T10:26:15;29.70;44.60
49385;DHT22;36795;45.028;38.968;2023-04-28T10:29:06;29.50;43.80
49385;DHT22;36795;45.028;38.968;2023-04-28T10:38:17;27.70;45.10
49385;DHT22;36795;45.028;38.968;2023-04-28T10:41:04;27.00;46.00
49385;DHT22;36795;45.028;38.968;2023-04-28T10:43:50;26.40;46.70
49385;DHT22;36795;45.028;38.968;2023-04-28T10:47:01;26.00;47.40
49385;DHT22;36795;45.028;38.968;2023-04-28T10:52:46;26.40;47.70
49385;DHT22;36795;45.028;38.968;2023-04-28T10:55:33;26.80;46.50
49385;DHT22;36795;45.028;38.968;2023-04-28T11:04:08;25.50;49.00
49385;DHT22;36795;45.028;38.968;2023-04-28T11:07:10;25.50;48.60
49385;DHT22;36795;45.028;38.968;2023-04-28T11:09:59;25.60;48.40
49385;DHT22;36795;45.028;38.968;2023-04-28T11:13:24;25.50;47.30
49385;DHT22;36795;45.028;38.968;2023-04-28T11:16:10;25.70;47.00
49385;DHT22;36795;45.028;38.968;2023-04-28T11:19:00;25.70;47.60
49385;DHT22;36795;45.028;38.968;2023-04-28T11:21:51;25.80;47.70
49385;DHT22;36795;45.028;38.968;2023-04-28T11:24:37;25.70;48.30
49385;DHT22;36795;45.028;38.968;2023-04-28T11:27:28;25.80;48.40
49385;DHT22;36795;45.028;38.968;2023-04-28T11:30:21;25.50;48.50
49385;DHT22;36795;45.028;38.968;2023-04-28T11:33:08;25.40;48.80
49385;DHT22;36795;45.028;38.968;2023-04-28T11:35:54;25.10;49.50
49385;DHT22;36795;45.028;38.968;2023-04-28T11:38:43;25.20;49.50
49385;DHT22;36795;45.028;38.968;2023-04-28T11:41:31;25.20;49.30
49385;DHT22;36795;45.028;38.968;2023-04-28T11:44:20;25.40;49.20
49385;DHT22;36795;45.028;38.968;2023-04-28T11:47:07;25.40;49.00
49385;DHT22;36795;45.028;38.968;2023-04-28T11:49:53;25.10;49.40
49385;DHT22;36795;45.028;38.968;2023-04-28T11:52:51;25.00;49.80
49385;DHT22;36795;45.028;38.968;2023-04-28T11:55:39;25.70;48.90
49385;DHT22;36795;45.028;38.968;2023-04-28T11:58:25;26.60;47.60
49385;DHT22;36795;45.028;38.968;2023-04-28T12:01:12;27.70;45.90
49385;DHT22;36795;45.028;38.968;2023-04-28T12:04:01;29.40;44.00
49385;DHT22;36795;45.028;38.968;2023-04-28T12:06:58;30.60;41.60
49385;DHT22;36795;45.028;38.968;2023-04-28T12:09:47;31.80;40.20
49385;DHT22;36795;45.028;38.968;2023-04-28T12:12:39;32.30;38.80
49385;DHT22;36795;45.028;38.968;2023-04-28T12:15:44;32.30;38.30
49385;DHT22;36795;45.028;38.968;2023-04-28T12:18:34;32.00;38.80
49385;DHT22;36795;45.028;38.968;2023-04-28T12:21:24;31.50;39.00
49385;DHT22;36795;45.028;38.968;2023-04-28T12:24:20;30.70;39.30
49385;DHT22;36795;45.028;38.968;2023-04-28T12:27:15;29.70;40.60
49385;DHT22;36795;45.028;38.968;2023-04-28T12:30:01;28.70;42.40
49385;DHT22;36795;45.028;38.968;2023-04-28T12:32:48;28.10;43.80
49385;DHT22;36795;45.028;38.968;2023-04-28T12:35:34;27.60;44.30
49385;DHT22;36795;45.028;38.968;2023-04-28T12:38:22;26.80;44.90
49385;DHT22;36795;45.028;38.968;2023-04-28T12:41:08;26.40;45.90
49385;DHT22;36795;45.028;38.968;2023-04-28T12:43:54;26.40;45.80
49385;DHT22;36795;45.028;38.968;2023-04-28T12:46:39;26.80;45.30
49385;DHT22;36795;45.028;38.968;2023-04-28T12:49:27;27.60;44.00
49385;DHT22;36795;45.028;38.968;2023-04-28T12:52:13;28.00;43.30
49385;DHT22;36795;45.028;38.968;2023-04-28T12:54:59;28.30;43.20
49385;DHT22;36795;45.028;38.968;2023-04-28T12:57:45;28.60;43.00
49385;DHT22;36795;45.028;38.968;2023-04-28T13:00:32;28.20;43.00
49385;DHT22;36795;45.028;38.968;2023-04-28T13:03:17;27.50;44.00
49385;DHT22;36795;45.028;38.968;2023-04-28T13:06:09;26.90;45.00
49385;DHT22;36795;45.028;38.968;2023-04-28T13:08:55;26.60;45.50
49385;DHT22;36795;45.028;38.968;2023-04-28T13:11:42;26.60;45.20
49385;DHT22;36795;45.028;38.968;2023-04-28T13:14:29;26.80;45.30
49385;DHT22;36795;45.028;38.968;2023-04-28T13:17:15;26.80;44.60
49385;DHT22;36795;45.028;38.968;2023-04-28T13:20:01;26.40;45.20
49385;DHT22;36795;45.028;38.968;2023-04-28T13:22:48;25.90;46.20
49385;DHT22;36795;45.028;38.968;2023-04-28T13:25:34;25.60;47.00
49385;DHT22;36795;45.028;38.968;2023-04-28T13:28:21;25.50;47.30
49385;DHT22;36795;45.028;38.968;2023-04-28T13:31:07;25.60;47.10
49385;DHT22;36795;45.028;38.968;2023-04-28T13:33:54;25.50;47.50
49385;DHT22;36795;45.028;38.968;2023-04-28T13:36:40;25.80;47.10
49385;DHT22;36795;45.028;38.968;2023-04-28T13:39:26;26.30;46.20
49385;DHT22;36795;45.028;38.968;2023-04-28T13:42:12;27.00;44.50
49385;DHT22;36795;45.028;38.968;2023-04-28T13:44:59;27.30;44.00
49385;DHT22;36795;45.028;38.968;2023-04-28T13:47:45;28.00;43.10
49385;DHT22;36795;45.028;38.968;2023-04-28T13:50:31;28.90;42.00
49385;DHT22;36795;45.028;38.968;2023-04-28T13:53:17;29.90;40.20
49385;DHT22;36795;45.028;38.968;2023-04-28T13:56:06;30.60;39.00
49385;DHT22;36795;45.028;38.968;2023-04-28T13:58:52;31.40;38.20
49385;DHT22;36795;45.028;38.968;2023-04-28T14:01:38;32.00;37.50
49385;DHT22;36795;45.028;38.968;2023-04-28T14:04:25;31.90;37.40
49385;DHT22;36795;45.028;38.968;2023-04-28T14:07:10;31.50;37.80
49385;DHT22;36795;45.028;38.968;2023-04-28T14:10:00;31.30;37.90
49385;DHT22;36795;45.028;38.968;2023-04-28T14:12:46;31.40;38.00
49385;DHT22;36795;45.028;38.968;2023-04-28T14:15:32;31.10;38.00
49385;DHT22;36795;45.028;38.968;2023-04-28T14:18:18;30.80;38.30
49385;DHT22;36795;45.028;38.968;2023-04-28T14:21:04;30.40;38.70
49385;DHT22;36795;45.028;38.968;2023-04-28T14:23:52;30.00;39.30
49385;DHT22;36795;45.028;38.968;2023-04-28T14:26:38;30.00;39.60
49385;DHT22;36795;45.028;38.968;2023-04-28T14:29:24;29.80;39.60
49385;DHT22;36795;45.028;38.968;2023-04-28T14:32:11;28.90;40.70
49385;DHT22;36795;45.028;38.968;2023-04-28T14:34:57;27.50;42.80
49385;DHT22;36795;45.028;38.968;2023-04-28T14:37:43;26.50;44.60
49385;DHT22;36795;45.028;38.968;2023-04-28T14:40:30;25.70;46.00
49385;DHT22;36795;45.028;38.968;2023-04-28T14:43:17;24.80;47.60
49385;DHT22;36795;45.028;38.968;2023-04-28T14:46:03;24.30;49.40
49385;DHT22;36795;45.028;38.968;2023-04-28T14:48:50;23.80;50.50
49385;DHT22;36795;45.028;38.968;2023-04-28T14:51:36;23.30;51.40
49385;DHT22;36795;45.028;38.968;2023-04-28T14:54:22;23.00;52.30
49385;DHT22;36795;45.028;38.968;2023-04-28T14:57:09;22.70;52.90
49385;DHT22;36795;45.028;38.968;2023-04-28T14:59:55;22.40;53.80
49385;DHT22;36795;45.028;38.968;2023-04-28T15:02:41;22.10;54.60
49385;DHT22;36795;45.028;38.968;2023-04-28T15:05:27;21.80;55.30
49385;DHT22;36795;45.028;38.968;2023-04-28T15:08:13;21.60;56.00
49385;DHT22;36795;45.028;38.968;2023-04-28T15:10:59;21.40;56.40
49385;DHT22;36795;45.028;38.968;2023-04-28T15:13:45;21.30;57.00
49385;DHT22;36795;45.028;38.968;2023-04-28T15:16:31;21.10;57.60
49385;DHT22;36795;45.028;38.968;2023-04-28T15:19:17;21.00;58.00
49385;DHT22;36795;45.028;38.968;2023-04-28T15:22:04;20.80;58.40
49385;DHT22;36795;45.028;38.968;2023-04-28T15:24:50;20.60;58.90
49385;DHT22;36795;45.028;38.968;2023-04-28T15:27:36;20.60;59.10
49385;DHT22;36795;45.028;38.968;2023-04-28T15:30:22;20.50;59.10
49385;DHT22;36795;45.028;38.968;2023-04-28T15:33:08;20.40;59.10
49385;DHT22;36795;45.028;38.968;2023-04-28T15:36:01;20.30;59.40
49385;DHT22;36795;45.028;38.968;2023-04-28T15:38:48;20.20;59.60
49385;DHT22;36795;45.028;38.968;2023-04-28T15:41:41;20.00;59.80
49385;DHT22;36795;45.028;38.968;2023-04-28T15:44:30;19.90;60.30
49385;DHT22;36795;45.028;38.968;2023-04-28T15:47:16;19.80;60.50
49385;DHT22;36795;45.028;38.968;2023-04-28T15:50:03;19.80;60.70
49385;DHT22;36795;45.028;38.968;2023-04-28T15:52:49;19.70;60.90
49385;DHT22;36795;45.028;38.968;2023-04-28T15:55:35;19.70;61.10
49385;DHT22;36795;45.028;38.968;2023-04-28T15:58:22;19.60;61.00
49385;DHT22;36795;45.028;38.968;2023-04-28T16:01:08;19.60;61.20
49385;DHT22;36795;45.028;38.968;2023-04-28T16:03:55;19.60;61.30
49385;DHT22;36795;45.028;38.968;2023-04-28T16:06:40;19.50;61.50
49385;DHT22;36795;45.028;38.968;2023-04-28T16:09:28;19.30;61.60
49385;DHT22;36795;45.028;38.968;2023-04-28T16:12:14;19.20;62.00
49385;DHT22;36795;45.028;38.968;2023-04-28T16:15:00;19.10;62.20
49385;DHT22;36795;45.028;38.968;2023-04-28T16:17:46;19.10;62.40
49385;DHT22;36795;45.028;38.968;2023-04-28T16:20:34;19.00;62.40
49385;DHT22;36795;45.028;38.968;2023-04-28T16:23:19;18.90;62.80
49385;DHT22;36795;45.028;38.968;2023-04-28T16:26:06;18.90;63.00
49385;DHT22;36795;45.028;38.968;2023-04-28T16:28:52;18.90;63.10
49385;DHT22;36795;45.028;38.968;2023-04-28T16:31:38;18.90;63.30
49385;DHT22;36795;45.028;38.968;2023-04-28T16:34:24;18.80;63.40
49385;DHT22;36795;45.028;38.968;2023-04-28T16:37:10;18.80;63.50
49385;DHT22;36795;45.028;38.968;2023-04-28T16:39:56;18.60;63.70
49385;DHT22;36795;45.028;38.968;2023-04-28T16:42:43;18.60;64.20
49385;DHT22;36795;45.028;38.968;2023-04-28T16:45:29;18.50;64.20
49385;DHT22;36795;45.028;38.968;2023-04-28T16:48:18;18.40;64.60
49385;DHT22;36795;45.028;38.968;2023-04-28T16:51:09;18.40;64.80
49385;DHT22;36795;45.028;38.968;2023-04-28T16:53:55;18.30;64.70
49385;DHT22;36795;45.028;38.968;2023-04-28T16:56:42;18.30;64.90
49385;DHT22;36795;45.028;38.968;2023-04-28T16:59:28;18.20;65.00
49385;DHT22;36795;45.028;38.968;2023-04-28T17:02:14;18.20;65.00
49385;DHT22;36795;45.028;38.968;2023-04-28T17:05:00;18.20;65.10
49385;DHT22;36795;45.028;38.968;2023-04-28T17:07:46;18.20;65.20
49385;DHT22;36795;45.028;38.968;2023-04-28T17:10:35;18.20;65.20
49385;DHT22;36795;45.028;38.968;2023-04-28T17:13:21;18.10;65.40
49385;DHT22;36795;45.028;38.968;2023-04-28T17:16:07;18.10;65.50
49385;DHT22;36795;45.028;38.968;2023-04-28T17:18:56;18.00;65.60
49385;DHT22;36795;45.028;38.968;2023-04-28T17:21:46;18.00;65.60
49385;DHT22;36795;45.028;38.968;2023-04-28T17:24:34;18.00;65.90
49385;DHT22;36795;45.028;38.968;2023-04-28T17:27:20;18.10;65.80
49385;DHT22;36795;45.028;38.968;2023-04-28T17:30:08;18.00;65.90
49385;DHT22;36795;45.028;38.968;2023-04-28T17:32:55;18.00;66.10
49385;DHT22;36795;45.028;38.968;2023-04-28T17:35:43;18.00;66.10
49385;DHT22;36795;45.028;38.968;2023-04-28T17:38:29;18.00;66.20
49385;DHT22;36795;45.028;38.968;2023-04-28T17:41:15;18.00;66.20